Flight Track Log - Related Links

Times and Time Zones

All times are in EDT time to prevent confusion due to time zone crossing. See the SWA620 flight status page for this flight to view local times or setup timezone preferences in your user account.

Time Position Orientation Groundspeed Altitude Reporting Facility
EDT Latitude Longitude Course Direction KTS MPH feet Rate Location/Type
Fri 07:04:32 AM 39.1833 -76.7500 282° West 222 255 2,600  Level Potomac TRACON
Fri 07:06:43 AM 39.2136 -76.9375 282° West 265 305 10,300 3,202 Climbing Washington Center
Fri 07:07:45 AM 39.2519 -77.0261 299° West 310 357 12,900 2,976 Climbing Washington Center
Fri 07:08:46 AM 39.3239 -77.1008 321° Northwest 331 381 16,400 3,120 Climbing Washington Center
Fri 07:09:50 AM 39.3972 -77.1817 320° Northwest 341 392 19,400 3,097 Climbing Washington Center
Fri 07:10:50 AM 39.4897 -77.2825 320° Northwest 358 412 22,800 3,174 Climbing Washington Center
Fri 07:11:51 AM 39.5672 -77.3708 319° Northwest 366 421 25,800 1,536 Climbing Washington Center
Fri 07:12:55 AM 39.6517 -77.4503 324° Northwest 372 428 26,000 118 Climbing Washington Center
Fri 07:13:33 AM 39.7153 -77.4589 354° North 359 413 26,000  Level New York Center
Fri 07:14:32 AM 39.8239 -77.4586 360° North 365 420 26,000  Level New York Center
Fri 07:15:31 AM 39.9261 -77.4928 346° North 370 426 26,000 893 Level New York Center
Fri 07:16:33 AM 40.0325 -77.5300 345° North 376 433 27,800 1,884 Climbing New York Center
Fri 07:17:32 AM 40.1408 -77.5678 345° North 387 445 29,800 1,109 Climbing New York Center
Fri 07:18:32 AM 40.2450 -77.6050 345° North 392 451 30,000 101 Climbing New York Center
Fri 07:19:31 AM 40.3511 -77.6456 344° North 392 451 30,000  Level New York Center
Fri 07:20:32 AM 40.4553 -77.6833 345° North 392 451 30,000  Level New York Center
Fri 07:21:32 AM 40.5592 -77.7236 344° North 392 451 30,000  Level New York Center
Fri 07:22:32 AM 40.6653 -77.7619 345° North 392 451 30,000  Level New York Center
Fri 07:23:33 AM 40.7692 -77.8025 344° North 392 451 30,000  Level New York Center
Fri 07:25:02 AM 40.9303 -77.8636 344° North 395 455 30,000  Level Cleveland Center
Fri 07:26:04 AM 41.0364 -77.9042 344° North 396 456 30,000  Level Cleveland Center
Fri 07:27:06 AM 41.1639 -77.9514 344° North 398 458 30,000 -484 Level Cleveland Center
Fri 07:28:08 AM 41.2672 -77.9917 344° North 398 458 29,000 -976 Descending Cleveland Center
Fri 07:29:09 AM 41.3683 -78.0303 344° North 385 443 28,000 -488 Descending Cleveland Center
Fri 07:30:11 AM 41.4731 -78.0706 344° North 392 451 28,000 -194 Level Cleveland Center
Fri 07:31:13 AM 41.5792 -78.1119 344° North 399 459 27,600 -780 Descending Cleveland Center
Fri 07:32:14 AM 41.7067 -78.1603 344° North 399 459 26,400 -1,073 Descending Cleveland Center
Fri 07:33:16 AM 41.8103 -78.2011 344° North 397 457 25,400 -1,016 Descending Cleveland Center
Fri 07:34:18 AM 41.9136 -78.2408 344° North 394 453 24,300 -1,694 Descending Cleveland Center
Fri 07:35:20 AM 42.0164 -78.2817 344° North 393 452 21,900 -2,371 Descending Cleveland Center
Fri 07:36:22 AM 42.1158 -78.3217 343° North 382 440 19,400 -2,439 Descending Cleveland Center
Fri 07:37:23 AM 42.2164 -78.3611 344° North 374 430 16,900 -2,683 Descending Cleveland Center
Fri 07:38:25 AM 42.3319 -78.4061 344° North 362 417 13,900 -2,468 Descending Cleveland Center
Fri 07:39:27 AM 42.4264 -78.4347 347° North 350 403 11,800 -1,548 Descending Cleveland Center
Fri 07:40:29 AM 42.5178 -78.4483 354° North 337 388 10,700 -1,161 Descending Cleveland Center
Fri 07:41:31 AM 42.5972 -78.4597 354° North 300 345 9,400 -1,415 Descending Cleveland Center
Fri 07:42:32 AM 42.6750 -78.4722 353° North 286 329 7,800 -1,561 Descending Cleveland Center
Fri 07:43:34 AM 42.7572 -78.4850 353° North 282 325 6,200 -1,500 Descending Cleveland Center
Fri 07:44:36 AM 42.8347 -78.4967 354° North 273 314 4,700 -1,065 Descending Cleveland Center
Fri 07:45:38 AM 42.9111 -78.5083 354° North 271 312 4,000 -435 Descending Cleveland Center
Fri 07:46:40 AM 42.9853 -78.5181 355° North 263 303 3,800 -488 Descending Cleveland Center
Fri 07:47:41 AM 43.0483 -78.5425 344° North 239 275 3,000 -732 Descending Cleveland Center
Fri 07:48:43 AM 43.0297 -78.6125 250° West 212 244 2,300 -532 Descending Cleveland Center
Fri 07:49:45 AM 42.9892 -78.6644 223° Southwest 194 223 1,900 -387 Descending Cleveland Center
Fri 07:50:47 AM 42.9506 -78.7119 222° Southwest 186 214 1,500 -387 Descending Cleveland Center

Login

Don't have an account? Register now (free) for customized features, flight alerts, and more!